Latest Coastal Weather Observations for Marion Reef

IDQ60701

Issued at 2:52 am EST Saturday 2 July 2016 (issued every 10 minutes, with the page automatically refreshed every 10 minutes)

About coastal observations | Map of coastal stations | Coastal observations for QLD | Marine services | Other Formats
Station Details ID: 200704 Name: MARION REEF Lat: -19.10 Lon: 152.39 Height: 2.0 m
Data from the previous 72 hours. | See also: Recent months for locations in Queensland
Date/Time
EST
Temp
°C
Wind Pressure Rain since
9am
mm
Weather Cloud Vis
km
Sea
Height
m
Swell
Dir  Spd
kts
Gust
kts
hPa Trend Height
m
Period
s
Dir
02/02:30am 23.6 SE 15 18 1017.8 - - - - - - - - -
02/02:00am 23.8 SE 15 19 1017.8 - - - - - - - - -
02/01:30am 24.0 SE 16 20 1018.2 - - - - - - - - -
02/01:00am 22.9 SE 18 21 1018.5 - - - - - - - - -
02/12:30am 24.1 SE 16 19 1018.9 - - - - - - - - -
02/12:00am 23.8 SE 16 18 1019.0 - - - - - - - - -
 
Date/Time
EST
Temp
°C
Wind Pressure Rain since
9am
mm
Weather Cloud Vis
km
Sea
Height
m
Swell
Dir  Spd
kts
Gust
kts
hPa Trend Height
m
Period
s
Dir
01/11:30pm 23.8 SE 15 18 1019.2 - - - - - - - - -
01/11:00pm 24.0 SE 15 18 1019.3 - - - - - - - - -
01/10:30pm 24.0 SE 16 19 1019.5 - - - - - - - - -
01/10:00pm 24.0 SSE 16 19 1019.5 - - - - - - - - -
01/09:30pm 23.7 SE 16 20 1019.5 - - - - - - - - -
01/09:00pm 23.7 SE 15 17 1019.5 - - - - - - - - -
01/08:30pm 23.8 SE 16 18 1019.3 - - - - - - - - -
01/08:00pm 23.6 SSE 17 19 1019.3 - - - - - - - - -
01/07:30pm 24.0 SSE 13 15 1019.2 - - - - - - - - -
01/07:00pm 23.9 SE 12 15 1018.7 - - - - - - - - -
01/06:30pm 23.7 SE 12 15 1018.2 - - - - - - - - -
01/06:00pm 24.0 SE 12 14 1017.9 - - - - - - - - -
01/05:30pm 23.8 SE 14 16 1017.7 - - - - - - - - -
01/05:00pm 23.6 SSE 14 18 1017.5 - - - - - - - - -
01/04:30pm 23.7 SSE 14 17 1017.3 - - - - - - - - -
01/04:00pm 23.5 S 14 17 1017.0 - - - - - - - - -
01/03:30pm 23.8 SE 13 16 1017.0 - - - - - - - - -
01/03:00pm 24.2 SE 11 14 1016.9 - - - - - - - - -
01/02:30pm 23.6 ESE 11 14 1017.0 - - - - - - - - -
01/02:00pm 24.0 SE 11 15 1017.0 - - - - - - - - -
01/01:30pm 24.2 ESE 8 12 1017.3 - - - - - - - - -
01/01:00pm 23.6 E 11 14 1017.4 - - - - - - - - -
01/12:30pm 23.3 ESE 12 14 1017.9 - - - - - - - - -
01/12:00pm 23.2 SE 13 16 1018.1 - - - - - - - - -
01/11:30am 23.6 SSE 11 13 1018.7 - - - - - - - - -
01/11:00am 23.7 SE 10 13 1019.0 - - - - - - - - -
01/10:30am 23.3 ESE 14 16 1019.3 - - - - - - - - -
01/10:00am 23.4 ESE 14 16 1019.3 - - - - - - - - -
01/09:30am 23.2 SE 13 16 1019.6 - - - - - - - - -
01/09:00am 23.5 SE 12 14 1019.6 - - - - - - - - -
01/08:30am 23.6 SE 8 10 1019.7 - - - - - - - - -
01/08:00am 23.6 SE 9 11 1019.4 - - - - - - - - -
01/07:30am 23.2 SE 11 13 1019.2 - - - - - - - - -
01/07:00am 23.2 SE 13 16 1018.7 - - - - - - - - -
01/06:30am 23.4 SSE 12 15 1018.4 - - - - - - - - -
01/06:00am 23.0 SSE 13 16 1018.1 - - - - - - - - -
01/05:30am 23.5 SSE 1 3 1017.9 - - - - - - - - -
01/05:00am 23.7 SSE 1 3 1017.7 - - - - - - - - -
01/04:30am 23.4 SE 1 3 1017.8 - - - - - - - - -
01/04:00am 23.4 SE 1 3 1017.6 - - - - - - - - -
01/03:30am 23.9 SE 1 3 1017.9 - - - - - - - - -
01/03:00am 23.9 CALM 0 3 1017.6 - - - - - - - - -
01/02:30am 23.8 CALM 0 3 1017.9 - - - - - - - - -
01/02:00am 23.9 ESE 1 2 1018.0 - - - - - - - - -
01/01:30am 24.0 ESE 1 3 1018.5 - - - - - - - - -
01/01:00am 24.1 ESE 2 4 1018.7 - - - - - - - - -
01/12:30am 24.2 ESE 14 17 1018.9 - - - - - - - - -
01/12:00am 24.4 ESE 14 18 1019.0 - - - - - - - - -
 
Date/Time
EST
Temp
°C
Wind Pressure Rain since
9am
mm
Weather Cloud Vis
km
Sea
Height
m
Swell
Dir  Spd
kts
Gust
kts
hPa Trend Height
m
Period
s
Dir
30/11:30pm 24.3 ESE 16 18 1019.1 - - - - - - - - -
30/11:00pm 24.5 ESE 18 22 1019.1 - - - - - - - - -
30/10:30pm 24.4 ESE 17 21 1019.4 - - - - - - - - -
30/10:21pm 24.5 ESE 16 20 1019.5 - - - - - - - - -
30/10:00pm 24.4 ESE 2 3 1019.4 - - - - - - - - -
30/09:30pm 24.4 SE 1 3 1019.5 - - - - - - - - -
30/09:00pm 24.3 SE 1 3 1019.5 - - - - - - - - -
30/08:30pm 24.2 ESE 1 3 1019.5 - - - - - - - - -
30/08:00pm 24.3 ESE 1 3 1019.4 - - - - - - - - -
30/07:30pm 24.3 SE 1 3 1019.3 - - - - - - - - -
30/07:00pm 24.4 ESE 1 3 1018.8 - - - - - - - - -
30/06:30pm 24.5 SE 1 3 1018.6 - - - - - - - - -
30/06:00pm 24.2 SE 12 15 1018.1 - - - - - - - - -
30/05:30pm 24.2 ESE 13 16 1017.8 - - - - - - - - -
30/05:00pm 24.0 ESE 13 15 1017.5 - - - - - - - - -
30/04:30pm 24.3 ESE 13 17 1017.3 - - - - - - - - -
30/04:00pm 24.2 ESE 13 16 1017.0 - - - - - - - - -
30/03:30pm 24.2 ESE 13 17 1016.8 - - - - - - - - -
30/03:00pm 24.1 ESE 14 17 1016.7 - - - - - - - - -
30/02:30pm 24.4 ESE 15 17 1016.8 - - - - - - - - -
30/02:00pm 24.4 E 15 18 1016.8 - - - - - - - - -
30/01:30pm 24.4 ESE 15 18 1017.0 - - - - - - - - -
30/01:00pm 24.4 ESE 15 18 1017.1 - - - - - - - - -
30/12:30pm 24.4 ESE 16 19 1017.8 - - - - - - - - -
30/12:00pm 24.4 ESE 15 17 1018.1 - - - - - - - - -
30/11:30am 24.4 ESE 14 18 1018.8 - - - - - - - - -
30/11:00am 24.3 E 15 20 1019.0 - - - - - - - - -
30/10:30am 24.3 E 15 17 1019.5 - - - - - - - - -
30/10:00am 24.4 E 16 20 1019.7 - - - - - - - - -
30/09:30am 23.6 ENE 9 15 1019.9 - - - - - - - - -
30/09:00am 24.0 ESE 16 21 1020.0 - - - - - - - - -
30/08:30am 23.9 ESE 14 19 1020.1 - - - - - - - - -
30/08:00am 23.5 ESE 17 20 1019.8 - - - - - - - - -
30/07:30am 23.9 SE 13 16 1019.6 - - - - - - - - -
30/07:00am 23.0 E 11 22 1019.3 - - - - - - - - -
30/06:30am 23.9 E 15 18 1019.1 - - - - - - - - -
30/06:00am 24.1 E 16 19 1018.8 - - - - - - - - -
30/05:30am 24.3 ESE 17 19 1018.7 - - - - - - - - -
30/05:00am 24.2 E 16 19 1018.4 - - - - - - - - -
30/04:30am 24.2 SE 18 22 1018.5 - - - - - - - - -
30/04:00am 24.1 SE 20 24 1018.5 - - - - - - - - -
30/03:30am 24.1 SE 19 23 1018.5 - - - - - - - - -
30/03:00am 23.8 SE 15 17 1018.5 - - - - - - - - -
30/02:30am 24.0 SE 18 22 1018.8 - - - - - - - - -
30/02:00am 23.9 ESE 20 23 1018.9 - - - - - - - - -
30/01:30am 24.0 ESE 23 26 1019.3 - - - - - - - - -
30/01:00am 24.0 ESE 21 25 1019.4 - - - - - - - - -
30/12:30am 24.3 ESE 19 22 1019.7 - - - - - - - - -
30/12:00am 24.1 SE 21 26 1019.7 - - - - - - - - -
 
Date/Time
EST
Temp
°C
Wind Pressure Rain since
9am
mm
Weather Cloud Vis
km
Sea
Height
m
Swell
Dir  Spd
kts
Gust
kts
hPa Trend Height
m
Period
s
Dir
29/11:30pm 24.2 SE 23 28 1019.9 - - - - - - - - -
29/11:00pm 23.7 SSE 23 31 1019.9 - - - - - - - - -
29/10:30pm 23.8 SSE 18 24 1020.2 - - - - - - - - -
29/10:00pm 24.0 SE 18 24 1020.5 - - - - - - - - -
29/09:30pm 24.1 SE 21 25 1020.6 - - - - - - - - -
29/09:00pm 24.1 SE 24 29 1020.2 - - - - - - - - -
29/08:30pm 24.0 SE 21 25 1020.4 - - - - - - - - -
29/08:00pm 24.0 SE 22 24 1020.2 - - - - - - - - -
29/07:30pm 24.1 SE 22 28 1020.0 - - - - - - - - -
29/07:00pm 23.9 SE 22 29 1019.7 - - - - - - - - -
29/06:30pm 24.1 SE 21 27 1019.4 - - - - - - - - -
29/06:00pm 24.0 SE 22 25 1019.1 - - - - - - - - -
29/05:30pm 24.0 SE 19 23 1019.0 - - - - - - - - -
29/05:00pm 24.1 SE 21 25 1018.8 - - - - - - - - -
29/04:30pm 23.7 SE 20 25 1018.7 - - - - - - - - -
29/04:00pm 23.6 SE 20 24 1018.3 - - - - - - - - -
29/03:30pm 23.3 SE 21 27 1018.3 - - - - - - - - -
29/03:00pm 23.4 SE 21 25 1018.1 - - - - - - - - -
29/02:30pm 23.3 SSE 22 26 1018.3 - - - - - - - - -
29/02:00pm 23.4 SE 22 25 1018.3 - - - - - - - - -
29/01:30pm 23.6 SE 20 24 1018.6 - - - - - - - - -
29/01:00pm 23.6 SE 20 24 1018.8 - - - - - - - - -
29/12:30pm 23.4 SSE 21 25 1019.3 - - - - - - - - -
29/12:00pm 23.6 SE 21 27 1019.5 - - - - - - - - -
29/11:30am 23.2 SE 19 24 1020.2 - - - - - - - - -
29/11:00am 23.1 SE 21 25 1020.3 - - - - - - - - -
29/10:30am 22.7 SSE 21 26 1020.8 - - - - - - - - -
29/10:00am 22.7 SE 22 26 1020.9 - - - - - - - - -
29/09:30am 22.5 SE 22 26 1020.9 - - - - - - - - -
29/09:00am 22.3 SE 22 26 1020.9 - - - - - - - - -
29/08:30am 22.1 SSE 23 28 1021.0 - - - - - - - - -
29/08:00am 22.3 SSE 22 28 1020.9 - - - - - - - - -
29/07:30am 21.6 SE 22 27 1020.8 - - - - - - - - -
29/07:00am 21.7 SSE 22 28 1020.5 - - - - - - - - -
29/06:30am 21.5 SSE 22 27 1020.3 - - - - - - - - -
29/06:00am 21.5 SSE 21 24 1019.9 - - - - - - - - -
29/05:30am 21.6 SSE 21 25 1020.0 - - - - - - - - -
29/05:00am 21.2 SSE 21 28 1019.6 - - - - - - - - -
29/04:30am 21.3 SSE 22 27 1019.8 - - - - - - - - -
29/04:00am 21.2 SSE 22 27 1019.8 - - - - - - - - -
29/03:30am 21.2 SSE 22 29 1019.7 - - - - - - - - -
29/03:00am 21.4 SSE 22 28 1019.7 - - - - - - - - -

Other Formats:

Comma delimited format used in spreadsheet applications
http://www.bom.gov.au/fwo/IDQ60701/IDQ60701.94298.axf

JavaScript Object Notation format (JSON) in row-major order
http://www.bom.gov.au/fwo/IDQ60701/IDQ60701.94298.json